Flight Track Log - Related Links

Times and Time Zones

All times are in EDT time to prevent confusion due to time zone crossing. See the OPT448 flight status page for this flight to view local times or setup timezone preferences in your user account.

Time Position Orientation Groundspeed Altitude Reporting Facility
EDT Latitude Longitude Course Direction KTS MPH feet Rate Location/Type
Mon 03:59:43 PM 44.0597 -76.0836 314° West 275 316 6,000  Level Boston Center
Mon 04:00:44 PM 44.1000 -76.1958 297° West 275 316 9,700 2,851 Climbing Boston Center
Mon 04:02:44 PM 44.1325 -76.4092 282° West 281 323 14,600 2,298 Climbing Boston Center
Mon 04:03:52 PM 44.0833 -76.5500 244° Southwest 320 368 16,900 2,156 Climbing Montreal Center
Mon 04:04:52 PM 44.0500 -76.6500 245° Southwest 320 368 19,200 2,300 Climbing Montreal Center
Mon 04:05:52 PM 44.0167 -76.7667 248° West 290 334 21,500 2,146 Climbing Montreal Center
Mon 04:06:55 PM 43.9833 -76.8333 235° Southwest 290 334 23,600 1,951 Climbing Toronto Center
Mon 04:07:55 PM 43.9500 -76.9500 248° West 290 334 25,500 1,200 Climbing Toronto Center
Mon 04:08:55 PM 43.9167 -77.0333 241° Southwest 290 334 26,000 250 Climbing Toronto Center
Mon 04:09:55 PM 43.8833 -77.1500 248° West 330 380 26,000  Level Toronto Center
Mon 04:10:55 PM 43.8333 -77.3000 245° Southwest 360 414 26,000 100 Level Toronto Center
Mon 04:11:55 PM 43.8167 -77.4333 260° West 380 437 26,200 950 Climbing Toronto Center
Mon 04:12:55 PM 43.7667 -77.5500 239° Southwest 370 426 27,900 900 Climbing Toronto Center
Mon 04:13:55 PM 43.7333 -77.7000 253° West 370 426 28,000 50 Climbing Toronto Center
Mon 04:14:55 PM 43.6500 -77.8167 225° Southwest 380 437 28,000  Level Toronto Center
Mon 04:15:55 PM 43.6000 -77.9000 230° Southwest 370 426 28,000 -5,113 Level Toronto Center
Mon 04:17:17 PM 43.0000 -84.1667 265° West 380 437 15,900  Descending Toronto Center
Mon 04:18:28 PM 43.4383 -78.2103 82° East 358 412 28,000 5,542 Climbing Cleveland Center
Mon 04:19:28 PM 43.3758 -78.3128 230° Southwest 364 419 28,000  Level Cleveland Center
Mon 04:20:28 PM 43.3111 -78.4178 230° Southwest 364 419 28,000  Level Cleveland Center
Mon 04:21:28 PM 43.2442 -78.5197 228° Southwest 364 419 28,000  Level Cleveland Center
Mon 04:22:28 PM 43.1814 -78.6244 231° Southwest 364 419 28,000  Level Cleveland Center
Mon 04:23:28 PM 43.1144 -78.7319 230° Southwest 364 419 28,000  Level Cleveland Center
Mon 04:24:28 PM 43.0453 -78.8389 229° Southwest 370 426 28,000  Level Cleveland Center
Mon 04:25:28 PM 42.9800 -78.9458 230° Southwest 370 426 28,000  Level Cleveland Center
Mon 04:26:28 PM 42.9106 -79.0497 228° Southwest 370 426 28,000  Level Cleveland Center
Mon 04:27:28 PM 42.8433 -79.1561 229° Southwest 370 426 28,000  Level Cleveland Center
Mon 04:28:28 PM 42.7736 -79.2681 230° Southwest 375 432 28,000  Level Cleveland Center
Mon 04:29:28 PM 42.7061 -79.3739 229° Southwest 375 432 28,000  Level Cleveland Center
Mon 04:30:28 PM 42.6364 -79.4825 229° Southwest 375 432 28,000  Level Cleveland Center
Mon 04:31:28 PM 42.5686 -79.5881 229° Southwest 380 437 28,000  Level Cleveland Center
Mon 04:32:28 PM 42.4964 -79.6933 227° Southwest 380 437 28,000  Level Cleveland Center
Mon 04:33:28 PM 42.4283 -79.7983 229° Southwest 380 437 28,000  Level Cleveland Center
Mon 04:34:28 PM 42.3561 -79.9089 229° Southwest 386 444 28,000 -50 Level Cleveland Center
Mon 04:35:28 PM 42.2858 -80.0164 229° Southwest 386 444 27,900 -1,050 Descending Cleveland Center
Mon 04:36:28 PM 42.2156 -80.1206 228° Southwest 380 437 25,900 -1,900 Descending Cleveland Center
Mon 04:37:28 PM 42.1492 -80.2247 229° Southwest 374 430 24,100 -1,550 Descending Cleveland Center
Mon 04:38:28 PM 42.0869 -80.3144 227° Southwest 374 430 22,800 -1,400 Descending Cleveland Center
Mon 04:39:28 PM 42.0183 -80.4156 228° Southwest 364 419 21,300 -1,550 Descending Cleveland Center
Mon 04:40:28 PM 41.9494 -80.5217 229° Southwest 369 425 19,700 -1,550 Descending Cleveland Center
Mon 04:41:28 PM 41.8786 -80.6278 228° Southwest 377 434 18,200 -1,850 Descending Cleveland Center
Mon 04:42:28 PM 41.8078 -80.7281 227° Southwest 377 434 16,000 -2,411 Descending Cleveland Center
Mon 04:43:15 PM 41.7450 -80.8253 229° Southwest 373 429 13,900 -2,336 Descending Cleveland Center
Mon 04:44:21 PM 41.6800 -80.9222 228° Southwest 309 356 11,600 -1,985 Descending Cleveland Center
Mon 04:45:28 PM 41.6153 -81.0164 227° Southwest 322 371 9,500 -1,890 Descending Cleveland Center
Mon 04:46:28 PM 41.5606 -81.0992 229° Southwest 314 361 7,600 -1,900 Descending Cleveland Center
Mon 04:47:28 PM 41.5164 -81.1878 236° Southwest 297 342 5,700 -1,900 Descending Cleveland Center
Mon 04:48:28 PM 41.4806 -81.2789 242° Southwest 286 329 3,800 -1,350 Descending Cleveland Center
Mon 04:49:28 PM 41.4486 -81.3697 245° Southwest 280 322 3,000 -400 Descending Cleveland Center
Mon 04:50:28 PM 41.4336 -81.4444 255° West 243 280 3,000  Level Cleveland Center
Mon 04:51:28 PM 41.4328 -81.5219 269° West 215 247 3,000  Level Cleveland Center
Mon 04:52:28 PM 41.4553 -81.5861 295° West 194 223 3,000 -50 Level Cleveland Center
Mon 04:53:27 PM 41.4947 -81.5950 350° North 172 198 2,900 -584 Descending Cleveland Center
Mon 04:54:21 PM 41.5203 -81.5567 48° Northeast 135 155 1,900 -835 Descending Cleveland Center
Mon 04:55:22 PM 41.5411 -81.5264 47° Northeast 104 120 1,300 -590 Descending Cleveland Center
Mon 04:57:00 PM 41.5500 -81.4833 37° Northeast  Level FlightAware Approximate
Mon 05:04:00 PM 41.5651 -81.4864 37° Northeast  Level Estimated

Login

Don't have an account? Register now (free) for customized features, flight alerts, and more!